Time;durP1;ratioP1;P1;durP2;ratioP2;P2;SDS_P1;SDS_P2;PMS_P1;PMS_P2;Temp;Humidity;BMP_temperature;BMP_pressure;BME280_temperature;BME280_humidity;BME280_pressure;Samples;Min_cycle;Max_cycle;Signal;HPM_P1;HPM_P2
2023/09/25 00:01:53;;;;;;;4.72;1.50;;;19.80;91.10;;;;;;5033044;28;20044;-73
2023/09/25 00:04:56;;;;;;;3.83;1.40;;;19.90;91.20;;;;;;5033471;28;20049;-73
2023/09/25 00:08:00;;;;;;;6.97;1.13;;;19.90;91.50;;;;;;5033102;28;20044;-73
2023/09/25 00:11:04;;;;;;;4.28;1.17;;;19.90;91.00;;;;;;5032945;28;20052;-73
2023/09/25 00:14:08;;;;;;;4.88;1.30;;;19.80;91.50;;;;;;5033137;28;20046;-73
2023/09/25 00:17:12;;;;;;;7.40;1.42;;;19.80;91.10;;;;;;5033154;28;20044;-74
2023/09/25 00:20:21;;;;;;;5.72;1.65;;;20.10;91.70;;;;;;5033095;28;20099;-73
2023/09/25 00:23:27;;;;;;;;;;;19.90;91.80;;;;;;5033235;28;20053;-73
2023/09/25 00:26:31;;;;;;;4.88;1.50;;;19.90;91.80;;;;;;5032686;28;19909;-73
2023/09/25 00:29:35;;;;;;;4.85;1.10;;;19.60;91.00;;;;;;5032866;28;20053;-73
2023/09/25 00:32:40;;;;;;;2.53;1.08;;;19.70;91.30;;;;;;5032430;28;20056;-73
2023/09/25 00:35:46;;;;;;;4.43;1.00;;;19.70;89.50;;;;;;5032805;28;20740;-73
2023/09/25 00:38:49;;;;;;;3.55;0.77;;;19.60;89.40;;;;;;5032701;28;20128;-73
2023/09/25 00:41:53;;;;;;;3.38;1.98;;;19.70;89.30;;;;;;5020514;28;20044;-73
2023/09/25 00:44:58;;;;;;;4.30;1.08;;;19.70;90.10;;;;;;5019550;28;20385;-73
2023/09/25 00:48:03;;;;;;;4.03;0.90;;;19.80;90.00;;;;;;5033107;28;20056;-73
2023/09/25 00:51:09;;;;;;;4.13;1.20;;;21.40;90.40;;;;;;5008611;28;20056;-73
2023/09/25 00:54:17;;;;;;;2.20;0.95;;;20.00;90.30;;;;;;5032524;28;20064;-73
2023/09/25 00:57:21;;;;;;;3.90;0.90;;;19.90;90.70;;;;;;5032584;28;20049;-73
2023/09/25 01:00:25;;;;;;;3.75;1.02;;;19.80;91.00;;;;;;5032161;28;20040;-73
2023/09/25 01:03:31;;;;;;;4.30;1.35;;;18.20;91.20;;;;;;5020729;28;20056;-72
2023/09/25 01:06:36;;;;;;;5.47;1.25;;;18.00;91.90;;;;;;5032258;28;20052;-73
2023/09/25 01:09:40;;;;;;;4.47;1.38;;;19.10;93.10;;;;;;5032361;28;20103;-73
2023/09/25 01:12:45;;;;;;;5.63;1.63;;;18.90;92.80;;;;;;5020109;28;20064;-72
2023/09/25 01:15:49;;;;;;;4.43;1.27;;;;;;;;;;5032285;28;20040;-73
2023/09/25 01:18:54;;;;;;;2.28;1.23;;;20.40;93.40;;;;;;5032328;28;20481;-73
2023/09/25 01:21:58;;;;;;;4.78;1.08;;;18.80;92.70;;;;;;5019828;28;20360;-73
2023/09/25 01:25:03;;;;;;;3.63;1.00;;;18.80;93.30;;;;;;5031707;28;20056;-73
2023/09/25 01:28:09;;;;;;;2.17;0.90;;;18.80;92.90;;;;;;5032026;28;20057;-74
2023/09/25 01:31:13;;;;;;;3.65;1.27;;;19.30;93.20;;;;;;5031408;28;20396;-72
2023/09/25 01:34:17;;;;;;;4.57;0.90;;;17.70;92.80;;;;;;5031308;28;20061;-72
2023/09/25 01:37:21;;;;;;;1.83;1.00;;;18.90;93.40;;;;;;5019045;28;20044;-73
2023/09/25 01:40:27;;;;;;;3.15;1.00;;;19.20;93.40;;;;;;5031428;28;20044;-73
2023/09/25 01:43:31;;;;;;;3.55;0.73;;;19.20;93.50;;;;;;5031226;28;20369;-73
2023/09/25 01:46:35;;;;;;;4.35;1.10;;;19.20;93.70;;;;;;5018819;28;20049;-73
2023/09/25 01:49:42;;;;;;;1.95;0.88;;;18.50;92.80;;;;;;5031078;28;20080;-72
2023/09/25 01:52:56;;;;;;;3.75;1.02;;;19.20;92.00;;;;;;5018566;28;20432;-73
2023/09/25 01:56:09;;;;;;;3.20;0.82;;;19.20;92.40;;;;;;5018980;28;20052;-73
2023/09/25 01:59:15;;;;;;;3.60;1.13;;;19.20;92.70;;;;;;5018883;28;20053;-73
2023/09/25 02:02:19;;;;;;;3.90;1.73;;;19.20;93.40;;;;;;5018409;28;20040;-72
2023/09/25 02:05:24;;;;;;;5.90;0.80;;;18.10;93.30;;;;;;5030746;28;20053;-72
2023/09/25 02:08:32;;;;;;;2.53;0.70;;;19.40;93.60;;;;;;5018989;28;20037;-73
2023/09/25 02:11:37;;;;;;;4.82;1.23;;;19.20;93.90;;;;;;5030663;28;20056;-73
2023/09/25 02:14:41;;;;;;;5.20;0.90;;;19.10;93.40;;;;;;5018651;28;20484;-73
2023/09/25 02:17:45;;;;;;;5.07;1.30;;;;;;;;;;5018622;28;20045;-72
2023/09/25 02:20:49;;;;;;;4.15;1.23;;;19.20;93.70;;;;;;5018725;28;20366;-72
2023/09/25 02:23:56;;;;;;;4.00;0.95;;;19.20;94.40;;;;;;5030697;28;20048;-72
2023/09/25 02:27:03;;;;;;;7.13;1.50;;;18.90;94.50;;;;;;5018388;28;20409;-73
2023/09/25 02:30:09;;;;;;;3.22;0.70;;;19.00;94.70;;;;;;5018570;28;20048;-73
2023/09/25 02:33:13;;;;;;;6.43;1.00;;;19.50;95.00;;;;;;5018387;28;20064;-73
2023/09/25 02:36:36;;;;;;;3.15;0.88;;;19.00;94.80;;;;;;5030572;28;20045;-72
2023/09/25 02:39:40;;;;;;;6.82;1.10;;;;;;;;;;5030429;28;20052;-72
2023/09/25 02:42:45;;;;;;;6.35;1.10;;;19.00;94.50;;;;;;5030109;28;20378;-72
2023/09/25 02:45:49;;;;;;;13.65;1.38;;;;;;;;;;5018116;28;20052;-73
2023/09/25 02:48:53;;;;;;;7.00;1.23;;;19.00;95.10;;;;;;5018342;28;20044;-73
2023/09/25 02:51:57;;;;;;;6.93;1.17;;;18.90;94.80;;;;;;5029943;28;20060;-73
2023/09/25 02:55:02;;;;;;;4.43;1.08;;;18.60;94.60;;;;;;5030398;28;20056;-73
2023/09/25 02:58:06;;;;;;;5.88;1.10;;;18.90;95.10;;;;;;5030261;28;20044;-73
2023/09/25 03:01:10;;;;;;;3.92;1.20;;;18.30;95.50;;;;;;5030104;28;20064;-72
2023/09/25 03:04:14;;;;;;;2.20;0.95;;;18.60;95.80;;;;;;5030416;28;20049;-72
2023/09/25 03:07:18;;;;;;;2.28;1.08;;;18.90;96.10;;;;;;5031389;28;20048;-73
2023/09/25 03:10:22;;;;;;;6.88;1.05;;;18.90;96.50;;;;;;5022066;28;20608;-72
2023/09/25 03:13:25;;;;;;;3.25;1.30;;;18.80;96.60;;;;;;5022046;28;20068;-72
2023/09/25 03:16:30;;;;;;;5.70;1.10;;;18.80;97.20;;;;;;5021774;28;20037;-72
2023/09/25 03:19:35;;;;;;;3.75;1.40;;;18.80;97.70;;;;;;5022001;28;20480;-72
2023/09/25 03:22:39;;;;;;;3.10;1.05;;;18.80;97.90;;;;;;5021775;28;20044;-73
2023/09/25 03:25:44;;;;;;;5.20;1.10;;;18.50;98.10;;;;;;5034227;28;20381;-72
2023/09/25 03:28:49;;;;;;;4.20;1.15;;;18.20;97.60;;;;;;5033850;28;20045;-72
2023/09/25 03:31:53;;;;;;;3.80;1.40;;;18.70;98.00;;;;;;5021522;28;20052;-72
2023/09/25 03:34:58;;;;;;;4.95;1.30;;;18.60;98.20;;;;;;5021810;28;20048;-73
2023/09/25 03:38:02;;;;;;;4.28;1.30;;;18.90;97.30;;;;;;5010036;28;20052;-72
2023/09/25 03:41:06;;;;;;;6.53;1.15;;;19.20;96.50;;;;;;5021370;28;20056;-72
2023/09/25 03:44:09;;;;;;;3.55;1.05;;;18.50;96.80;;;;;;5021407;28;20056;-72
2023/09/25 03:47:13;;;;;;;4.35;1.17;;;18.70;96.50;;;;;;5033466;28;20048;-72
2023/09/25 03:50:17;;;;;;;2.35;1.05;;;18.70;95.80;;;;;;5009528;28;20056;-72
2023/09/25 03:53:21;;;;;;;8.38;1.17;;;18.70;96.30;;;;;;5021038;28;20051;-72
2023/09/25 03:56:26;;;;;;;2.08;0.70;;;18.70;95.40;;;;;;5033364;28;20056;-72
2023/09/25 03:59:30;;;;;;;3.33;0.82;;;18.80;95.30;;;;;;5033356;28;20048;-73
2023/09/25 04:02:34;;;;;;;1.35;0.70;;;18.90;96.30;;;;;;5033050;28;20048;-72
2023/09/25 04:05:38;;;;;;;1.58;0.75;;;22.20;95.90;;;;;;5033138;28;20048;-72
2023/09/25 04:08:42;;;;;;;1.73;0.60;;;18.70;94.00;;;;;;5033233;28;20049;-73
2023/09/25 04:11:46;;;;;;;4.15;1.30;;;19.00;94.10;;;;;;5033040;28;20048;-73
2023/09/25 04:14:53;;;;;;;1.40;0.80;;;18.90;93.30;;;;;;5032993;28;20048;-73
2023/09/25 04:17:57;;;;;;;2.30;0.80;;;18.70;93.20;;;;;;5033108;28;20105;-72
2023/09/25 04:21:07;;;;;;;4.43;1.10;;;18.90;93.80;;;;;;5032657;28;20041;-73
2023/09/25 04:24:11;;;;;;;4.03;1.13;;;18.80;94.20;;;;;;5032872;28;20052;-72
2023/09/25 04:27:15;;;;;;;3.20;0.80;;;17.90;94.20;;;;;;5032864;28;20049;-72
2023/09/25 04:30:19;;;;;;;1.13;0.63;;;18.90;94.60;;;;;;5020517;28;20049;-72
2023/09/25 04:33:24;;;;;;;1.15;0.52;;;19.20;92.70;;;;;;5032406;28;20511;-72
2023/09/25 04:36:29;;;;;;;2.83;0.65;;;18.90;92.80;;;;;;5032616;28;20041;-72
2023/09/25 04:39:33;;;;;;;2.40;0.73;;;19.00;94.10;;;;;;5032636;28;20128;-73
2023/09/25 04:42:37;;;;;;;2.15;0.63;;;19.00;94.50;;;;;;5032573;28;20580;-72
2023/09/25 04:45:41;;;;;;;4.32;0.80;;;19.30;93.80;;;;;;5032640;28;20654;-73
2023/09/25 04:48:46;;;;;;;2.50;0.70;;;18.90;93.30;;;;;;5032567;28;20040;-72
2023/09/25 04:51:50;;;;;;;5.85;1.30;;;18.80;93.10;;;;;;5032254;28;20053;-73
2023/09/25 04:54:54;;;;;;;6.70;1.80;;;17.70;92.80;;;;;;5032438;28;20452;-72
2023/09/25 04:57:58;;;;;;;4.28;1.60;;;18.70;93.30;;;;;;5032373;28;20507;-72
2023/09/25 05:01:02;;;;;;;2.00;1.30;;;19.10;93.50;;;;;;5031898;28;20052;-73
2023/09/25 05:04:06;;;;;;;3.17;1.70;;;18.90;93.90;;;;;;5032048;28;20052;-73
2023/09/25 05:07:10;;;;;;;2.95;1.38;;;17.70;93.50;;;;;;5031904;28;20060;-73
2023/09/25 05:10:16;;;;;;;1.30;0.70;;;18.70;94.10;;;;;;5032022;28;20048;-73
2023/09/25 05:13:19;;;;;;;1.98;0.60;;;18.80;93.00;;;;;;5031730;28;20052;-72
2023/09/25 05:16:23;;;;;;;1.05;0.50;;;18.80;92.30;;;;;;5031951;28;20365;-73
2023/09/25 05:19:27;;;;;;;1.33;0.50;;;;;;;;;;5031850;28;20397;-72
2023/09/25 05:22:31;;;;;;;3.63;0.98;;;18.80;92.30;;;;;;5031796;28;20038;-78
2023/09/25 05:25:36;;;;;;;1.75;0.80;;;;;;;;;;5031987;28;20052;-76
2023/09/25 05:28:40;;;;;;;4.65;0.60;;;;;;;;;;5031972;28;20370;-77
2023/09/25 05:31:45;;;;;;;1.88;0.70;;;18.10;92.00;;;;;;5031330;28;20041;-77
2023/09/25 05:34:49;;;;;;;3.75;0.80;;;;;;;;;;5031669;28;20052;-78
2023/09/25 05:37:53;;;;;;;2.67;0.82;;;20.70;92.80;;;;;;5018826;28;20488;-77
2023/09/25 05:40:57;;;;;;;2.13;0.80;;;19.20;92.40;;;;;;5031534;28;20048;-77
2023/09/25 05:44:00;;;;;;;3.78;1.02;;;19.10;92.70;;;;;;5031539;28;20068;-78
2023/09/25 05:47:04;;;;;;;7.68;1.20;;;19.20;92.80;;;;;;5030977;28;20044;-78
2023/09/25 05:50:09;;;;;;;4.25;1.33;;;18.80;92.20;;;;;;5018976;28;20456;-76
2023/09/25 05:53:14;;;;;;;7.28;1.05;;;;;;;;;;5030935;28;20056;-76
2023/09/25 05:56:17;;;;;;;8.23;1.05;;;18.00;91.80;;;;;;5031421;28;20370;-77
2023/09/25 05:59:21;;;;;;;3.72;1.10;;;19.80;92.40;;;;;;5031389;28;20048;-77
2023/09/25 06:02:27;;;;;;;4.80;1.42;;;19.80;92.30;;;;;;5031150;28;20056;-78
2023/09/25 06:05:31;;;;;;;2.45;0.98;;;;;;;;;;5031157;28;20040;-77
2023/09/25 06:08:35;;;;;;;4.22;0.90;;;21.70;92.40;;;;;;5030702;28;20034;-78
2023/09/25 06:11:39;;;;;;;3.70;0.90;;;;;;;;;;5030511;28;20037;-78
2023/09/25 06:14:44;;;;;;;2.80;0.90;;;19.10;92.10;;;;;;5018369;28;20041;-75
2023/09/25 06:17:48;;;;;;;3.38;1.10;;;21.20;92.90;;;;;;5030888;28;20048;-73
2023/09/25 06:20:52;;;;;;;5.15;1.20;;;;;;;;;;5030906;28;20061;-73
2023/09/25 06:23:57;;;;;;;2.72;1.00;;;19.40;92.30;;;;;;5030663;28;20374;-76
2023/09/25 06:27:01;;;;;;;7.57;1.02;;;19.50;92.60;;;;;;5030557;28;20048;-76
2023/09/25 06:30:06;;;;;;;6.80;1.52;;;19.50;92.10;;;;;;5030974;28;20048;-75
2023/09/25 06:33:11;;;;;;;2.78;1.35;;;19.40;92.40;;;;;;5030472;28;20143;-71
2023/09/25 06:36:15;;;;;;;3.45;1.10;;;20.40;93.20;;;;;;5030745;28;20044;-71
2023/09/25 06:39:19;;;;;;;3.05;1.17;;;;;;;;;;5030580;28;20056;-73
2023/09/25 06:42:23;;;;;;;7.50;1.20;;;20.40;92.80;;;;;;5029708;28;20033;-72
2023/09/25 06:45:27;;;;;;;8.50;1.30;;;20.90;92.60;;;;;;5030585;28;20057;-73
2023/09/25 06:48:34;;;;;;;5.00;1.30;;;19.30;92.70;;;;;;5030370;28;20048;-72
2023/09/25 06:51:37;;;;;;;6.13;1.98;;;19.50;92.70;;;;;;5029853;28;20060;-72
2023/09/25 06:54:41;;;;;;;7.10;1.38;;;19.60;93.20;;;;;;5030499;28;20048;-72
2023/09/25 06:57:45;;;;;;;4.22;0.70;;;19.60;93.20;;;;;;5030337;28;20048;-72
2023/09/25 07:00:50;;;;;;;3.25;0.80;;;19.60;91.80;;;;;;5030576;28;20121;-72
2023/09/25 07:03:54;;;;;;;7.13;0.70;;;18.20;90.00;;;;;;5030451;28;20060;-72
2023/09/25 07:06:58;;;;;;;3.92;1.02;;;19.50;90.50;;;;;;5029683;28;20071;-71
2023/09/25 07:10:03;;;;;;;2.92;0.70;;;19.60;90.30;;;;;;5028056;28;20052;-71
2023/09/25 07:13:09;;;;;;;4.05;0.57;;;;;;;;;;5028279;28;20056;-72
2023/09/25 07:16:13;;;;;;;4.85;0.70;;;19.60;88.00;;;;;;5029148;28;20041;-72
2023/09/25 07:19:17;;;;;;;6.38;0.90;;;21.20;89.60;;;;;;5029733;28;20071;-73
2023/09/25 07:22:22;;;;;;;4.90;0.60;;;19.70;88.40;;;;;;5029585;28;20045;-73
2023/09/25 07:25:27;;;;;;;9.73;0.80;;;19.80;88.70;;;;;;5030222;28;20060;-72
2023/09/25 07:28:31;;;;;;;4.63;0.90;;;19.80;89.10;;;;;;5029707;28;20056;-69
2023/09/25 07:31:35;;;;;;;5.75;0.80;;;20.00;89.40;;;;;;5029554;28;20139;-71
2023/09/25 07:34:40;;;;;;;8.65;1.00;;;20.00;89.30;;;;;;5029832;28;20511;-71
2023/09/25 07:37:45;;;;;;;5.43;1.23;;;20.20;89.50;;;;;;5029955;28;20052;-72
2023/09/25 07:40:48;;;;;;;3.33;0.80;;;20.20;89.40;;;;;;5029790;28;20040;-70
2023/09/25 07:43:54;;;;;;;6.60;1.60;;;20.10;88.30;;;;;;5029913;28;20056;-73
2023/09/25 07:46:59;;;;;;;3.03;1.10;;;20.20;89.10;;;;;;5029831;28;20358;-73
2023/09/25 07:50:04;;;;;;;4.35;0.73;;;20.20;88.90;;;;;;5029301;28;20056;-72
2023/09/25 07:53:07;;;;;;;2.63;0.82;;;20.20;89.30;;;;;;5030052;28;20057;-73
2023/09/25 07:56:12;;;;;;;2.20;0.90;;;20.40;89.80;;;;;;5032979;28;20068;-72
2023/09/25 07:59:16;;;;;;;4.10;0.93;;;20.40;89.80;;;;;;5021058;28;20065;-71
2023/09/25 08:02:21;;;;;;;4.43;0.90;;;20.70;90.10;;;;;;5033325;28;20044;-74
2023/09/25 08:05:24;;;;;;;2.78;0.90;;;20.80;86.50;;;;;;5020754;28;20389;-71
2023/09/25 08:08:28;;;;;;;3.88;1.00;;;21.10;87.50;;;;;;5033149;28;20113;-70
2023/09/25 08:11:32;;;;;;;3.53;1.00;;;21.50;86.20;;;;;;5033074;28;20408;-72
2023/09/25 08:14:36;;;;;;;6.07;1.23;;;21.80;87.00;;;;;;5020658;28;20057;-74
2023/09/25 08:17:45;;;;;;;3.13;1.00;;;22.10;85.70;;;;;;5033103;28;20113;-71
2023/09/25 08:20:49;;;;;;;4.97;1.30;;;22.50;83.40;;;;;;5032669;28;20048;-70
2023/09/25 08:23:52;;;;;;;2.17;1.17;;;22.60;82.30;;;;;;5033049;28;20531;-72
2023/09/25 08:26:57;;;;;;;2.53;1.40;;;22.70;81.30;;;;;;5020220;28;20049;-70
2023/09/25 08:30:02;;;;;;;2.70;1.20;;;22.70;80.70;;;;;;5032323;28;20060;-71
2023/09/25 08:33:07;;;;;;;12.57;1.63;;;22.60;81.50;;;;;;5020059;28;20056;-71
2023/09/25 08:36:11;;;;;;;2.90;1.60;;;22.80;81.50;;;;;;5032624;28;20373;-72
2023/09/25 08:39:15;;;;;;;5.70;1.30;;;23.10;80.20;;;;;;5032449;28;20048;-70
2023/09/25 08:42:24;;;;;;;4.35;1.83;;;23.10;80.50;;;;;;5020195;28;20041;-71
2023/09/25 08:45:27;;;;;;;6.82;1.50;;;23.10;80.50;;;;;;5032701;28;20397;-70
2023/09/25 08:48:31;;;;;;;6.47;1.58;;;23.00;80.80;;;;;;5020337;28;20055;-69
2023/09/25 08:51:38;;;;;;;6.38;1.50;;;23.00;80.50;;;;;;5031895;28;20052;-69
2023/09/25 08:54:42;;;;;;;3.50;1.25;;;22.90;80.60;;;;;;5020129;28;20396;-72
2023/09/25 08:57:47;;;;;;;3.97;1.30;;;22.80;80.90;;;;;;5032123;28;20623;-72
2023/09/25 09:00:53;;;;;;;7.03;1.60;;;23.00;81.20;;;;;;5032337;28;20627;-71
2023/09/25 09:03:57;;;;;;;4.90;1.65;;;23.00;80.50;;;;;;5032013;28;20056;-72
2023/09/25 09:07:01;;;;;;;3.35;1.80;;;23.20;80.90;;;;;;5031718;28;20389;-72
2023/09/25 09:10:06;;;;;;;5.40;1.80;;;23.30;79.60;;;;;;5031036;28;20068;-72
2023/09/25 09:13:10;;;;;;;3.90;1.67;;;23.30;79.90;;;;;;5031666;28;20052;-71
2023/09/25 09:16:17;;;;;;;5.25;1.73;;;23.20;79.40;;;;;;5032030;28;20045;-70
2023/09/25 09:19:20;;;;;;;3.97;1.88;;;23.20;79.80;;;;;;5019599;28;20044;-70
2023/09/25 09:22:26;;;;;;;5.97;1.55;;;23.20;79.60;;;;;;5031712;28;20389;-70
2023/09/25 09:25:29;;;;;;;3.75;1.80;;;23.30;79.20;;;;;;5031669;28;20049;-69
2023/09/25 09:28:34;;;;;;;8.80;1.65;;;23.40;79.60;;;;;;5030023;28;20092;-71
2023/09/25 09:31:40;;;;;;;4.70;1.75;;;23.50;78.80;;;;;;5030187;28;20044;-72
2023/09/25 09:34:46;;;;;;;3.90;1.67;;;23.40;78.80;;;;;;5007429;28;20060;-70
2023/09/25 09:37:54;;;;;;;3.60;1.73;;;23.60;78.80;;;;;;5030896;28;20040;-71
2023/09/25 09:41:01;;;;;;;5.95;1.50;;;23.50;78.50;;;;;;5030784;28;20048;-72
2023/09/25 09:44:05;;;;;;;5.18;1.60;;;23.60;78.90;;;;;;5031214;28;20469;-70
2023/09/25 09:47:09;;;;;;;7.35;2.55;;;23.60;78.00;;;;;;5019197;28;20067;-71
2023/09/25 09:50:21;;;;;;;6.80;1.80;;;23.60;78.20;;;;;;5018821;28;20068;-72
2023/09/25 09:53:26;;;;;;;3.78;1.80;;;23.80;79.00;;;;;;5031022;28;20060;-72
2023/09/25 09:56:32;;;;;;;4.40;2.25;;;24.20;78.10;;;;;;5018626;28;20044;-72
2023/09/25 09:59:36;;;;;;;2.28;1.48;;;24.40;77.60;;;;;;5031262;28;20555;-71
2023/09/25 10:02:41;;;;;;;2.55;1.60;;;24.60;75.70;;;;;;5031084;28;20056;-71
2023/09/25 10:05:47;;;;;;;3.47;1.58;;;24.60;75.60;;;;;;5018816;28;20045;-70
2023/09/25 10:09:10;;;;;;;3.30;1.70;;;24.60;75.60;;;;;;5030898;28;20052;-70
2023/09/25 10:12:45;;;;;;;3.40;1.60;;;24.10;74.90;;;;;;5030372;28;20049;-72
2023/09/25 10:15:53;;;;;;;3.40;1.50;;;24.10;75.90;;;;;;5030714;28;20369;-72
2023/09/25 10:18:57;;;;;;;3.47;1.50;;;24.20;76.50;;;;;;5030843;28;20048;-73
2023/09/25 10:22:22;;;;;;;3.53;1.50;;;24.40;76.20;;;;;;5030437;28;20048;-74
2023/09/25 10:25:27;;;;;;;3.75;1.80;;;24.50;76.30;;;;;;5030636;28;20051;-71
2023/09/25 10:28:37;;;;;;;3.05;1.55;;;24.50;76.20;;;;;;5030811;28;20047;-71
2023/09/25 10:31:48;;;;;;;3.90;1.60;;;24.60;77.00;;;;;;5030400;28;20523;-71
2023/09/25 10:34:52;;;;;;;6.80;1.88;;;24.60;76.30;;;;;;5030591;28;20531;-74
2023/09/25 10:38:16;;;;;;;5.20;1.63;;;25.70;76.30;;;;;;5018191;28;20044;-79
2023/09/25 10:41:22;;;;;;;4.10;1.80;;;24.80;76.40;;;;;;5030353;28;20052;-78
2023/09/25 10:44:30;;;;;;;2.95;1.48;;;25.10;73.90;;;;;;5030121;28;20048;-76
2023/09/25 10:47:34;;;;;;;4.20;1.60;;;25.20;74.70;;;;;;5018309;28;20044;-73
2023/09/25 10:50:39;;;;;;;4.97;1.60;;;25.80;74.80;;;;;;5017643;28;20531;-74
2023/09/25 10:53:43;;;;;;;5.13;2.13;;;25.10;73.80;;;;;;5017834;28;20057;-73
2023/09/25 10:56:47;;;;;;;3.17;1.38;;;25.10;74.00;;;;;;5030607;28;20059;-73
2023/09/25 10:59:52;;;;;;;3.47;1.60;;;25.00;72.90;;;;;;5029090;28;20060;-75
2023/09/25 11:02:56;;;;;;;3.83;1.50;;;24.90;74.20;;;;;;5027445;28;20304;-74
2023/09/25 11:06:00;;;;;;;7.80;1.60;;;24.90;74.40;;;;;;5029051;28;20041;-76
2023/09/25 11:09:04;;;;;;;3.45;1.52;;;24.90;74.80;;;;;;5028259;28;20049;-76
2023/09/25 11:12:08;;;;;;;2.40;1.58;;;25.00;74.10;;;;;;5029456;28;20413;-75
2023/09/25 11:15:16;;;;;;;3.35;1.60;;;25.10;74.30;;;;;;5029817;28;20056;-75
2023/09/25 11:18:20;;;;;;;5.82;1.48;;;25.00;74.00;;;;;;5018300;28;20155;-75
2023/09/25 11:21:31;;;;;;;3.15;1.70;;;25.00;74.30;;;;;;5030233;28;20056;-75
2023/09/25 11:24:35;;;;;;;2.75;1.45;;;24.90;74.20;;;;;;5030034;28;20048;-75
2023/09/25 11:27:53;;;;;;;3.80;1.50;;;24.80;74.30;;;;;;5029887;28;20060;-76
2023/09/25 11:31:01;;;;;;;2.45;1.80;;;24.70;74.30;;;;;;5033761;28;20056;-75
2023/09/25 11:34:08;;;;;;;5.20;2.22;;;24.70;75.20;;;;;;5021589;28;20064;-77
2023/09/25 11:37:22;;;;;;;3.88;1.70;;;24.60;74.80;;;;;;5032614;28;20052;-75
2023/09/25 11:40:27;;;;;;;3.47;1.88;;;24.60;74.10;;;;;;5021256;28;20048;-75
2023/09/25 11:43:32;;;;;;;3.42;1.75;;;24.50;75.70;;;;;;5033350;28;20045;-75
2023/09/25 11:46:36;;;;;;;3.72;1.88;;;24.60;77.90;;;;;;5021317;28;20421;-73
2023/09/25 11:49:40;;;;;;;5.95;4.20;;;24.60;78.10;;;;;;5033173;28;20755;-73
2023/09/25 11:52:45;;;;;;;5.68;2.83;;;24.60;77.10;;;;;;5033216;28;20374;-74
2023/09/25 11:55:50;;;;;;;4.07;1.83;;;24.50;77.60;;;;;;5033294;28;20048;-74
2023/09/25 11:58:55;;;;;;;4.13;1.58;;;24.50;78.10;;;;;;5033213;28;20056;-73
2023/09/25 12:02:00;;;;;;;3.80;1.60;;;24.40;76.90;;;;;;5020867;28;20044;-71
2023/09/25 12:05:04;;;;;;;4.63;1.75;;;24.20;76.90;;;;;;5033042;28;20489;-72
2023/09/25 12:08:11;;;;;;;4.50;1.65;;;24.40;76.60;;;;;;5033161;28;20044;-73
2023/09/25 12:11:15;;;;;;;3.65;2.00;;;24.50;76.80;;;;;;5033044;28;20040;-75
2023/09/25 12:14:20;;;;;;;3.92;1.70;;;23.60;77.90;;;;;;5020569;28;20480;-73
2023/09/25 12:17:25;;;;;;;4.18;1.80;;;24.70;78.40;;;;;;5033054;28;20040;-74
2023/09/25 12:20:29;;;;;;;5.05;1.95;;;24.70;78.80;;;;;;5033062;28;20049;-74
2023/09/25 12:23:34;;;;;;;14.35;3.42;;;24.80;78.60;;;;;;5033664;28;20044;-74
2023/09/25 12:26:38;;;;;;;8.43;2.40;;;24.60;78.80;;;;;;5032852;28;20068;-74
2023/09/25 12:29:44;;;;;;;5.00;1.80;;;24.50;79.40;;;;;;5033081;28;20366;-75
2023/09/25 12:32:48;;;;;;;5.28;1.88;;;24.60;79.50;;;;;;5032854;28;20048;-73
2023/09/25 12:35:53;;;;;;;9.88;2.08;;;24.70;78.70;;;;;;5032862;28;20072;-73
2023/09/25 12:38:57;;;;;;;4.90;1.80;;;24.70;79.30;;;;;;5032436;28;20058;-74
2023/09/25 12:42:01;;;;;;;3.53;2.22;;;24.90;79.10;;;;;;5032189;28;20052;-77
2023/09/25 12:45:06;;;;;;;4.28;1.70;;;24.80;78.90;;;;;;5032593;28;20076;-77
2023/09/25 12:48:10;;;;;;;4.03;1.92;;;24.60;78.70;;;;;;5031964;28;20044;-76
2023/09/25 12:51:14;;;;;;;9.30;1.90;;;24.30;79.10;;;;;;5031912;28;20132;-77
2023/09/25 12:54:18;;;;;;;5.95;1.77;;;24.30;80.40;;;;;;5032032;28;20069;-73
2023/09/25 12:57:22;;;;;;;7.30;1.60;;;24.20;81.10;;;;;;5032097;28;20048;-71
2023/09/25 13:00:26;;;;;;;5.45;1.60;;;23.90;81.50;;;;;;5031928;28;20060;-75
2023/09/25 13:03:31;;;;;;;2.28;1.63;;;23.60;81.70;;;;;;5008564;28;20068;-75
2023/09/25 13:06:35;;;;;;;6.40;1.77;;;23.60;82.60;;;;;;5032318;28;20393;-76
2023/09/25 13:09:40;;;;;;;7.65;2.10;;;23.30;88.20;;;;;;5019730;28;20052;-75
2023/09/25 13:12:44;;;;;;;14.90;2.33;;;23.30;88.70;;;;;;5019708;28;20049;-72
2023/09/25 13:15:48;;;;;;;6.93;2.60;;;23.10;90.60;;;;;;5032112;28;20044;-74
2023/09/25 13:18:52;;;;;;;12.07;2.33;;;22.90;91.70;;;;;;5031712;28;20036;-74
2023/09/25 13:21:56;;;;;;;6.32;2.38;;;22.70;91.80;;;;;;5031866;28;20041;-73
2023/09/25 13:25:04;;;;;;;6.32;2.65;;;22.40;91.70;;;;;;5031749;28;20048;-71
2023/09/25 13:28:09;;;;;;;7.00;2.53;;;22.10;92.40;;;;;;5031645;28;20143;-71
2023/09/25 13:31:13;;;;;;;5.53;2.53;;;22.00;92.50;;;;;;5031623;28;20048;-73
2023/09/25 13:34:20;;;;;;;6.72;2.60;;;22.10;93.30;;;;;;5031436;28;20060;-72
2023/09/25 13:37:24;;;;;;;7.80;2.60;;;22.20;93.20;;;;;;5031621;28;20040;-74
2023/09/25 13:40:31;;;;;;;7.20;3.20;;;22.40;93.20;;;;;;5031002;28;20044;-75
2023/09/25 13:43:35;;;;;;;7.35;2.40;;;22.40;93.40;;;;;;5031501;28;20044;-73
2023/09/25 13:46:41;;;;;;;5.80;2.10;;;22.50;92.70;;;;;;5031267;28;20048;-76
2023/09/25 13:49:46;;;;;;;6.00;2.88;;;22.60;92.60;;;;;;5031449;28;20048;-72
2023/09/25 13:52:50;;;;;;;2.70;2.40;;;22.60;92.10;;;;;;5030851;28;20072;-72
2023/09/25 13:55:54;;;;;;;9.55;2.40;;;22.70;91.70;;;;;;5030989;28;20068;-74
2023/09/25 13:58:58;;;;;;;5.80;2.42;;;22.70;91.90;;;;;;5019127;28;20059;-76
2023/09/25 14:02:02;;;;;;;6.63;2.88;;;22.80;91.30;;;;;;5031026;28;20060;-74
2023/09/25 14:05:07;;;;;;;9.68;2.50;;;22.80;91.20;;;;;;5031368;28;20052;-75
2023/09/25 14:08:11;;;;;;;4.55;2.30;;;22.40;91.10;;;;;;5032136;28;20420;-73
2023/09/25 14:11:15;;;;;;;6.22;2.10;;;22.90;91.00;;;;;;5030553;28;20048;-74
2023/09/25 14:14:21;;;;;;;5.70;2.25;;;23.10;89.90;;;;;;5030151;28;20056;-73
2023/09/25 14:17:25;;;;;;;3.40;2.40;;;23.10;90.20;;;;;;5029093;28;20046;-73
2023/09/25 14:20:29;;;;;;;7.78;2.00;;;23.20;89.50;;;;;;5030183;28;20044;-74
2023/09/25 14:23:33;;;;;;;5.22;2.00;;;23.30;88.60;;;;;;5030852;28;20052;-74
2023/09/25 14:26:37;;;;;;;7.20;2.08;;;23.30;87.50;;;;;;5030705;28;20052;-75
2023/09/25 14:29:43;;;;;;;4.13;2.03;;;23.30;87.50;;;;;;5030202;28;20045;-73
2023/09/25 14:32:50;;;;;;;4.82;2.15;;;23.40;87.50;;;;;;5030819;28;20044;-68
2023/09/25 14:35:54;;;;;;;5.28;1.90;;;23.40;87.30;;;;;;5030354;28;20476;-70
2023/09/25 14:38:58;;;;;;;4.07;2.28;;;23.50;86.60;;;;;;5030650;28;20143;-71
2023/09/25 14:42:02;;;;;;;9.77;2.20;;;23.50;87.20;;;;;;5030307;28;20057;-70
2023/09/25 14:45:07;;;;;;;9.20;2.40;;;23.50;87.40;;;;;;5029953;28;20396;-70
2023/09/25 14:48:11;;;;;;;6.88;2.60;;;24.80;87.30;;;;;;5018019;28;20068;-69
2023/09/25 14:51:15;;;;;;;8.25;2.65;;;24.80;87.80;;;;;;5029546;28;20507;-71
2023/09/25 14:54:20;;;;;;;4.20;1.83;;;23.50;87.10;;;;;;5029869;28;20068;-74
2023/09/25 14:57:24;;;;;;;5.90;2.35;;;23.40;87.50;;;;;;5030183;28;20040;-71
2023/09/25 15:00:28;;;;;;;5.88;2.38;;;23.40;87.60;;;;;;5030109;28;20045;-72
2023/09/25 15:03:32;;;;;;;4.50;2.08;;;23.40;89.10;;;;;;5033132;28;20075;-76
2023/09/25 15:06:36;;;;;;;7.97;2.25;;;23.30;87.60;;;;;;5036185;28;20036;-76
2023/09/25 15:09:41;;;;;;;6.88;2.40;;;23.40;88.50;;;;;;5035003;28;20040;-76
2023/09/25 15:12:45;;;;;;;5.70;2.47;;;23.30;89.40;;;;;;5036347;28;20064;-74
2023/09/25 15:15:49;;;;;;;8.13;2.70;;;23.20;89.30;;;;;;5036109;28;20052;-73
2023/09/25 15:18:53;;;;;;;5.15;2.60;;;23.20;89.60;;;;;;5036363;28;20044;-73
2023/09/25 15:21:58;;;;;;;6.90;2.53;;;23.10;90.00;;;;;;5035880;28;20056;-72
2023/09/25 15:25:02;;;;;;;6.30;2.63;;;23.10;90.20;;;;;;5024293;28;20048;-73
2023/09/25 15:28:06;;;;;;;6.85;2.92;;;23.00;89.90;;;;;;5036364;28;20045;-72
2023/09/25 15:31:10;;;;;;;5.88;2.55;;;23.10;90.30;;;;;;5036539;28;20548;-72
2023/09/25 15:34:14;;;;;;;7.35;2.85;;;23.10;90.30;;;;;;5036486;28;20056;-72
2023/09/25 15:37:18;;;;;;;7.07;5.45;;;23.10;90.30;;;;;;5036569;28;20056;-73
2023/09/25 15:40:23;;;;;;;5.03;3.22;;;23.10;90.10;;;;;;5036555;28;20060;-73
2023/09/25 15:43:27;;;;;;;5.57;2.85;;;23.10;90.30;;;;;;5036329;28;20048;-72
2023/09/25 15:46:31;;;;;;;4.85;2.58;;;23.10;90.30;;;;;;5036331;28;20052;-74
2023/09/25 15:49:35;;;;;;;5.10;2.60;;;23.50;90.40;;;;;;5035641;28;20392;-71
2023/09/25 15:52:39;;;;;;;8.35;2.80;;;23.10;90.20;;;;;;5036344;28;20361;-72
2023/09/25 15:55:43;;;;;;;4.85;2.90;;;23.10;90.00;;;;;;5036420;28;20052;-73
2023/09/25 15:58:48;;;;;;;8.98;2.80;;;23.10;90.10;;;;;;5036301;28;20064;-72
2023/09/25 16:01:52;;;;;;;7.20;2.97;;;23.10;90.00;;;;;;5036166;28;20048;-72
2023/09/25 16:04:56;;;;;;;3.45;2.50;;;21.90;89.20;;;;;;5036361;28;20159;-71
2023/09/25 16:08:00;;;;;;;6.70;3.30;;;23.00;89.90;;;;;;5036132;28;20056;-73